Time;durP1;ratioP1;P1;durP2;ratioP2;P2;SDS_P1;SDS_P2;PMS_P1;PMS_P2;Temp;Humidity;BMP_temperature;BMP_pressure;BME280_temperature;BME280_humidity;BME280_pressure;Samples;Min_cycle;Max_cycle;Signal;HPM_P1;HPM_P2
2023/07/03 00:00:35;;;;;;;11.23;3.72;;;18.50;95.10;;;;;;5012827;28;20039;-75
2023/07/03 00:03:01;;;;;;;12.65;4.70;;;18.50;95.10;;;;;;5030832;28;20544;-75
2023/07/03 00:05:29;;;;;;;16.65;4.70;;;18.40;95.10;;;;;;5032348;28;20025;-75
2023/07/03 00:07:55;;;;;;;9.68;3.80;;;18.40;95.30;;;;;;5025273;28;20037;-76
2023/07/03 00:10:21;;;;;;;12.50;3.85;;;18.30;95.30;;;;;;5034509;28;20021;-75
2023/07/03 00:12:47;;;;;;;12.88;3.85;;;18.30;95.50;;;;;;5012751;28;20032;-75
2023/07/03 00:15:14;;;;;;;10.90;3.95;;;18.20;95.90;;;;;;5016460;28;20734;-76
2023/07/03 00:17:44;;;;;;;7.90;3.60;;;18.20;95.80;;;;;;5034596;28;20026;-76
2023/07/03 00:20:13;;;;;;;12.90;4.18;;;18.20;96.00;;;;;;5013273;28;20034;-76
2023/07/03 00:22:41;;;;;;;9.38;3.97;;;18.20;96.00;;;;;;4998077;28;20473;-76
2023/07/03 00:25:08;;;;;;;11.95;3.50;;;18.10;96.30;;;;;;5016490;28;20052;-77
2023/07/03 00:27:33;;;;;;;10.70;4.43;;;18.10;96.60;;;;;;5024506;28;20861;-76
2023/07/03 00:29:59;;;;;;;12.68;4.18;;;18.10;96.80;;;;;;5016566;28;20101;-76
2023/07/03 00:32:27;;;;;;;8.15;3.13;;;18.10;96.70;;;;;;5024297;28;20028;-76
2023/07/03 00:34:54;;;;;;;13.80;4.22;;;18.10;96.80;;;;;;5012663;28;20044;-77
2023/07/03 00:37:21;;;;;;;8.23;4.05;;;18.10;96.80;;;;;;5024370;28;20025;-76
2023/07/03 00:39:47;;;;;;;11.20;3.83;;;18.20;96.60;;;;;;5016434;28;20396;-76
2023/07/03 00:42:13;;;;;;;12.77;4.43;;;18.20;96.60;;;;;;5023935;28;20400;-77
2023/07/03 00:44:39;;;;;;;10.25;3.58;;;18.20;96.60;;;;;;5033225;28;20036;-76
2023/07/03 00:47:05;;;;;;;17.20;4.20;;;18.10;96.70;;;;;;5033606;28;20504;-75
2023/07/03 00:49:32;;;;;;;13.57;4.57;;;18.10;96.80;;;;;;5027021;28;20022;-76
2023/07/03 00:51:59;;;;;;;13.40;3.67;;;18.00;97.00;;;;;;5019124;28;20052;-77
2023/07/03 00:54:25;;;;;;;10.48;3.67;;;18.00;97.10;;;;;;5015497;28;20539;-76
2023/07/03 00:56:51;;;;;;;12.35;4.47;;;18.00;97.30;;;;;;5033828;28;20033;-76
2023/07/03 00:59:17;;;;;;;14.05;4.25;;;17.90;97.50;;;;;;5032895;28;20026;-76
2023/07/03 01:01:57;;;;;;;12.40;4.07;;;17.90;97.60;;;;;;5019496;28;20036;-76
2023/07/03 01:04:34;;;;;;;9.45;3.67;;;17.80;98.10;;;;;;5015441;28;20045;-76
2023/07/03 01:07:05;;;;;;;9.82;3.95;;;17.80;98.20;;;;;;5009372;28;20101;-76
2023/07/03 01:09:43;;;;;;;8.23;3.05;;;17.70;98.50;;;;;;5015560;28;20579;-76
2023/07/03 01:12:10;;;;;;;12.57;3.80;;;17.70;98.80;;;;;;5016154;28;20032;-75
2023/07/03 01:14:39;;;;;;;15.43;4.22;;;17.70;99.00;;;;;;5011594;28;20033;-75
2023/07/03 01:17:11;;;;;;;8.45;3.20;;;17.80;99.10;;;;;;5021678;28;20493;-75
2023/07/03 01:19:41;;;;;;;12.57;3.38;;;17.70;99.20;;;;;;5015811;28;20033;-75
2023/07/03 01:22:20;;;;;;;16.33;4.00;;;17.70;99.30;;;;;;5033450;28;20060;-76
2023/07/03 01:24:56;;;;;;;6.45;3.28;;;17.80;99.30;;;;;;5032849;28;20037;-77
2023/07/03 01:27:29;;;;;;;9.57;3.72;;;17.80;99.40;;;;;;5025374;28;20021;-76
2023/07/03 01:29:57;;;;;;;13.55;4.40;;;17.90;99.40;;;;;;5024153;28;20052;-76
2023/07/03 01:32:27;;;;;;;10.10;3.40;;;17.80;99.40;;;;;;5023242;28;20092;-76
2023/07/03 01:34:53;;;;;;;11.02;4.05;;;17.70;99.80;;;;;;5016088;28;20053;-76
2023/07/03 01:37:25;;;;;;;13.05;4.53;;;17.70;99.90;;;;;;5007229;28;20100;-76
2023/07/03 01:39:52;;;;;;;8.95;4.10;;;17.70;99.90;;;;;;5011777;28;20064;-76
2023/07/03 01:42:22;;;;;;;10.63;3.35;;;17.70;99.90;;;;;;5014574;28;20061;-76
2023/07/03 01:44:48;;;;;;;9.70;3.63;;;17.70;99.90;;;;;;5024183;28;20125;-77
2023/07/03 01:47:15;;;;;;;10.80;3.42;;;17.80;99.90;;;;;;5022581;28;20105;-75
2023/07/03 01:49:41;;;;;;;8.98;3.75;;;17.90;99.80;;;;;;5015173;28;20038;-76
2023/07/03 01:52:37;;;;;;;6.72;3.20;;;17.80;99.90;;;;;;5032669;28;20037;-76
2023/07/03 01:55:24;;;;;;;11.70;4.07;;;17.80;99.90;;;;;;5013155;28;20425;-77
2023/07/03 01:57:58;;;;;;;7.75;3.30;;;17.80;99.90;;;;;;5032545;28;20061;-76
2023/07/03 02:00:41;;;;;;;13.05;4.80;;;17.80;99.90;;;;;;5007982;28;20072;-76
2023/07/03 02:03:20;;;;;;;13.88;3.35;;;17.80;99.90;;;;;;5023424;28;20043;-76
2023/07/03 02:05:48;;;;;;;11.13;3.72;;;17.80;99.90;;;;;;5012436;28;20079;-76
2023/07/03 02:08:17;;;;;;;13.68;3.45;;;17.80;99.90;;;;;;5022869;28;20497;-77
2023/07/03 02:10:42;;;;;;;12.73;3.95;;;17.80;99.90;;;;;;4998354;28;20492;-78
2023/07/03 02:13:08;;;;;;;11.77;4.70;;;17.90;99.90;;;;;;5022787;28;20095;-77
2023/07/03 02:15:35;;;;;;;11.48;3.33;;;17.90;99.90;;;;;;5032050;28;20496;-77
2023/07/03 02:18:01;;;;;;;24.80;4.95;;;17.90;99.90;;;;;;5032225;28;20029;-78
2023/07/03 02:20:28;;;;;;;11.43;3.50;;;17.90;99.90;;;;;;5032195;28;20029;-78
2023/07/03 02:22:56;;;;;;;9.88;3.83;;;18.00;99.90;;;;;;5032094;28;20036;-77
2023/07/03 02:25:21;;;;;;;11.57;3.75;;;18.00;99.90;;;;;;5031956;28;20033;-77
2023/07/03 02:27:50;;;;;;;13.30;3.85;;;17.90;99.90;;;;;;5031617;28;20040;-77
2023/07/03 02:30:16;;;;;;;10.27;3.15;;;17.90;99.90;;;;;;5031535;28;20036;-77
2023/07/03 02:32:42;;;;;;;11.88;3.42;;;17.80;99.90;;;;;;5022317;28;20045;-76
2023/07/03 02:35:10;;;;;;;9.13;3.35;;;17.80;99.90;;;;;;5031687;28;20033;-76
2023/07/03 02:37:36;;;;;;;14.95;4.28;;;17.80;99.90;;;;;;5006040;28;20049;-76
2023/07/03 02:40:05;;;;;;;9.68;3.70;;;17.80;99.90;;;;;;5012014;28;20046;-77
2023/07/03 02:42:31;;;;;;;12.48;3.85;;;17.90;99.90;;;;;;5022707;28;20030;-77
2023/07/03 02:44:59;;;;;;;11.57;3.47;;;17.80;99.90;;;;;;5059872;22;20049;-75
2023/07/03 02:47:25;;;;;;;10.02;3.38;;;17.90;99.90;;;;;;5033333;28;20029;-75
2023/07/03 02:49:51;;;;;;;10.65;4.28;;;18.00;99.90;;;;;;5050131;28;20040;-75
2023/07/03 02:52:17;;;;;;;8.23;3.90;;;17.90;99.90;;;;;;5033043;28;20108;-75
2023/07/03 02:54:42;;;;;;;13.85;3.75;;;17.90;99.90;;;;;;5050788;28;20139;-75
2023/07/03 02:57:08;;;;;;;9.48;3.17;;;18.00;99.90;;;;;;5033387;28;20032;-75
2023/07/03 02:59:34;;;;;;;12.18;3.83;;;18.00;99.90;;;;;;5044542;28;20043;-75
2023/07/03 03:02:00;;;;;;;12.50;3.75;;;18.00;99.90;;;;;;5050683;28;20033;-75
2023/07/03 03:04:26;;;;;;;10.05;3.38;;;18.00;99.90;;;;;;5044799;28;20082;-75
2023/07/03 03:06:52;;;;;;;24.08;4.93;;;18.10;99.90;;;;;;5050927;28;20396;-75
2023/07/03 03:09:17;;;;;;;9.63;3.67;;;18.10;99.90;;;;;;5045141;28;20028;-74
2023/07/03 03:11:43;;;;;;;15.75;3.85;;;18.20;99.70;;;;;;5050767;28;20507;-75
2023/07/03 03:14:09;;;;;;;12.13;4.50;;;18.20;99.30;;;;;;5044918;28;20053;-74
2023/07/03 03:16:34;;;;;;;7.55;3.65;;;18.20;99.40;;;;;;5050719;28;20025;-74
2023/07/03 03:19:01;;;;;;;16.67;3.78;;;18.10;99.20;;;;;;5045031;28;20067;-74
2023/07/03 03:21:27;;;;;;;15.10;4.50;;;18.10;99.40;;;;;;5050519;28;20646;-74
2023/07/03 03:23:52;;;;;;;9.50;3.17;;;18.00;99.70;;;;;;5026929;28;20039;-74
2023/07/03 03:26:18;;;;;;;12.52;4.22;;;18.10;99.80;;;;;;5050595;28;20051;-74
2023/07/03 03:28:44;;;;;;;10.98;4.70;;;18.10;99.60;;;;;;5046206;28;20481;-75
2023/07/03 03:31:09;;;;;;;14.95;4.35;;;18.10;99.60;;;;;;5049578;28;20056;-75
2023/07/03 03:33:35;;;;;;;12.63;3.78;;;18.10;99.70;;;;;;5046839;28;20055;-75
2023/07/03 03:36:01;;;;;;;8.18;3.85;;;18.00;99.70;;;;;;5048274;28;20087;-75
2023/07/03 03:38:26;;;;;;;10.48;3.70;;;17.90;99.90;;;;;;5048271;28;20480;-74
2023/07/03 03:40:57;;;;;;;15.02;3.88;;;17.90;99.90;;;;;;5046474;28;20043;-75
2023/07/03 03:43:23;;;;;;;;;;;17.90;99.90;;;;;;5048612;28;20025;-74
2023/07/03 03:46:01;;;;;;;14.48;3.67;;;17.90;99.90;;;;;;5028656;28;20421;-74
2023/07/03 03:48:29;;;;;;;9.80;3.45;;;17.90;99.90;;;;;;5013246;28;20132;-74
2023/07/03 03:50:55;;;;;;;12.00;3.95;;;18.00;99.90;;;;;;5029751;28;20048;-74
2023/07/03 03:53:22;;;;;;;9.75;4.72;;;18.00;99.90;;;;;;5048511;28;20105;-74
2023/07/03 03:55:50;;;;;;;15.65;4.97;;;17.90;99.90;;;;;;5046338;28;20048;-74
2023/07/03 03:58:17;;;;;;;18.17;4.50;;;18.00;99.90;;;;;;5031732;28;20033;-74
2023/07/03 04:00:43;;;;;;;13.07;3.47;;;17.90;99.90;;;;;;5011419;28;20029;-74
2023/07/03 04:03:09;;;;;;;11.30;4.30;;;17.80;99.90;;;;;;5049350;28;20112;-74
2023/07/03 04:05:36;;;;;;;7.80;3.22;;;17.80;99.90;;;;;;5027292;28;20108;-74
2023/07/03 04:08:02;;;;;;;8.43;3.60;;;17.80;99.90;;;;;;5032406;28;20068;-74
2023/07/03 04:10:28;;;;;;;10.73;3.72;;;17.60;99.90;;;;;;5026636;28;20025;-74
2023/07/03 04:12:54;;;;;;;19.27;4.63;;;17.60;99.90;;;;;;5032188;28;20538;-74
2023/07/03 04:15:22;;;;;;;10.02;4.03;;;17.70;99.90;;;;;;5044463;28;20029;-73
2023/07/03 04:17:48;;;;;;;12.60;3.70;;;17.80;99.90;;;;;;5050335;28;20163;-73
2023/07/03 04:20:14;;;;;;;12.50;3.67;;;17.80;99.90;;;;;;5044500;28;20104;-75
2023/07/03 04:22:41;;;;;;;11.88;3.63;;;17.90;99.90;;;;;;5032358;28;20041;-75
2023/07/03 04:25:08;;;;;;;6.75;3.08;;;17.90;99.90;;;;;;5026175;28;20159;-74
2023/07/03 04:27:34;;;;;;;14.88;4.45;;;17.90;99.90;;;;;;5032269;28;20711;-74
2023/07/03 04:30:01;;;;;;;13.82;4.15;;;18.00;99.90;;;;;;5026512;28;20060;-74
2023/07/03 04:32:28;;;;;;;12.82;3.63;;;17.90;99.90;;;;;;5049653;28;20116;-74
2023/07/03 04:34:53;;;;;;;11.55;3.70;;;17.90;99.90;;;;;;5043583;28;20025;-74
2023/07/03 04:37:19;;;;;;;11.25;3.33;;;17.90;99.90;;;;;;5031069;28;20029;-74
2023/07/03 04:39:45;;;;;;;8.75;3.15;;;18.00;99.90;;;;;;5021350;28;20032;-74
2023/07/03 04:42:13;;;;;;;8.48;3.72;;;18.00;99.90;;;;;;5043102;28;20175;-73
2023/07/03 04:44:43;;;;;;;10.05;3.67;;;18.00;99.90;;;;;;5037628;28;20071;-74
2023/07/03 04:47:09;;;;;;;10.32;3.50;;;18.00;99.90;;;;;;5043226;28;20037;-74
2023/07/03 04:49:35;;;;;;;8.35;3.47;;;18.00;99.90;;;;;;5021752;28;20025;-74
2023/07/03 04:52:01;;;;;;;7.45;3.55;;;17.90;99.90;;;;;;5030211;28;20029;-74
2023/07/03 04:54:30;;;;;;;12.57;3.50;;;18.00;99.90;;;;;;5022048;28;20048;-76
2023/07/03 04:56:56;;;;;;;8.65;3.40;;;18.10;99.90;;;;;;5027348;28;20047;-75
2023/07/03 04:59:22;;;;;;;9.25;4.07;;;18.10;99.90;;;;;;5043084;28;20028;-59
2023/07/03 05:01:48;;;;;;;19.55;3.58;;;18.10;99.90;;;;;;5052866;28;20025;-59
2023/07/03 05:04:14;;;;;;;19.42;4.53;;;18.20;99.90;;;;;;5028454;28;20033;-59
2023/07/03 05:06:39;;;;;;;14.23;4.97;;;18.20;99.90;;;;;;5052940;28;20044;-62
2023/07/03 05:09:08;;;;;;;11.65;4.93;;;18.30;99.90;;;;;;5046993;28;20425;-63
2023/07/03 05:11:34;;;;;;;12.80;3.83;;;18.30;99.90;;;;;;5035585;28;20028;-63
2023/07/03 05:14:00;;;;;;;14.98;4.78;;;18.30;99.90;;;;;;5046210;28;20516;-63
2023/07/03 05:16:26;;;;;;;13.93;4.47;;;18.40;99.90;;;;;;5035080;28;20079;-62
2023/07/03 05:18:52;;;;;;;13.02;3.63;;;18.40;99.90;;;;;;5047053;28;20037;-62
2023/07/03 05:21:18;;;;;;;16.67;4.15;;;18.40;99.80;;;;;;5044570;28;20116;-63
2023/07/03 05:23:43;;;;;;;8.88;3.35;;;18.40;99.90;;;;;;5048053;28;20025;-63
2023/07/03 05:26:09;;;;;;;13.35;3.33;;;18.50;99.90;;;;;;5043093;28;20037;-63
2023/07/03 05:28:36;;;;;;;8.93;2.90;;;18.60;99.80;;;;;;5049253;28;20113;-61
2023/07/03 05:31:02;;;;;;;12.52;3.35;;;18.70;99.00;;;;;;5049834;28;20112;-63
2023/07/03 05:33:30;;;;;;;10.32;3.83;;;18.70;98.70;;;;;;5049726;28;20037;-61
2023/07/03 05:36:02;;;;;;;8.20;2.83;;;18.60;98.90;;;;;;5040115;28;20033;-59
2023/07/03 05:38:28;;;;;;;10.80;3.45;;;18.60;99.00;;;;;;5046495;28;20041;-59
2023/07/03 05:40:54;;;;;;;12.88;3.63;;;18.50;99.00;;;;;;5049038;28;20124;-59
2023/07/03 05:43:21;;;;;;;14.55;4.25;;;18.50;99.20;;;;;;5050068;28;20135;-59
2023/07/03 05:45:48;;;;;;;11.68;3.28;;;18.50;99.20;;;;;;5030156;28;20067;-59
2023/07/03 05:48:14;;;;;;;10.90;3.30;;;18.50;99.30;;;;;;5033700;28;20492;-58
2023/07/03 05:50:40;;;;;;;12.52;3.53;;;18.40;99.30;;;;;;5040117;28;20035;-59
2023/07/03 05:53:08;;;;;;;22.48;4.45;;;18.30;99.60;;;;;;5044245;28;20025;-58
2023/07/03 05:55:34;;;;;;;12.05;2.83;;;18.30;99.70;;;;;;5048116;28;20046;-59
2023/07/03 05:58:02;;;;;;;12.20;4.28;;;18.40;99.80;;;;;;5017931;28;20519;-58
2023/07/03 06:00:30;;;;;;;7.80;2.80;;;18.40;99.90;;;;;;5046329;28;20174;-75
2023/07/03 06:02:58;;;;;;;13.98;2.97;;;18.50;99.80;;;;;;5034279;28;20911;-82
2023/07/03 06:05:25;;;;;;;6.50;2.85;;;18.60;99.20;;;;;;5051672;28;20039;-75
2023/07/03 06:07:50;;;;;;;9.55;2.13;;;18.60;99.10;;;;;;5033970;28;20485;-78
2023/07/03 06:10:17;;;;;;;6.05;2.40;;;18.70;99.00;;;;;;5028922;28;20047;-75
2023/07/03 06:12:43;;;;;;;4.70;1.90;;;18.60;98.60;;;;;;5051855;28;20070;-75
2023/07/03 06:15:10;;;;;;;10.45;2.25;;;18.50;98.70;;;;;;5046301;28;20029;-73
2023/07/03 06:17:37;;;;;;;8.48;2.92;;;18.40;98.90;;;;;;5029441;28;20053;-74
2023/07/03 06:20:05;;;;;;;10.70;2.83;;;18.50;98.90;;;;;;5026244;28;20044;-72
2023/07/03 06:22:31;;;;;;;7.03;2.35;;;18.60;99.10;;;;;;5051405;28;20039;-75
2023/07/03 06:24:56;;;;;;;12.52;2.97;;;18.80;99.00;;;;;;5045209;28;20544;-76
2023/07/03 06:27:22;;;;;;;15.23;3.28;;;18.90;98.70;;;;;;5051510;28;20124;-74
2023/07/03 06:29:48;;;;;;;16.83;2.83;;;18.70;98.80;;;;;;5046663;28;20124;-74
2023/07/03 06:32:16;;;;;;;9.10;2.20;;;18.60;98.70;;;;;;5050611;28;20017;-72
2023/07/03 06:34:42;;;;;;;12.52;2.78;;;18.40;98.80;;;;;;5046932;28;20033;-72
2023/07/03 06:37:08;;;;;;;8.15;2.40;;;18.30;99.00;;;;;;5049828;28;20439;-75
2023/07/03 06:39:37;;;;;;;26.75;3.10;;;18.30;98.80;;;;;;5048622;28;20039;-74
2023/07/03 06:42:04;;;;;;;3.70;1.83;;;18.30;98.80;;;;;;5049442;28;20540;-72
2023/07/03 06:44:30;;;;;;;9.00;2.25;;;18.20;98.30;;;;;;5048194;28;20445;-73
2023/07/03 06:46:56;;;;;;;8.63;2.92;;;18.30;98.40;;;;;;5048121;28;20033;-74
2023/07/03 06:49:24;;;;;;;10.05;2.28;;;18.40;98.20;;;;;;5049535;28;20035;-74
2023/07/03 06:51:51;;;;;;;12.38;2.35;;;18.50;98.00;;;;;;5047026;28;20066;-72
2023/07/03 06:54:17;;;;;;;7.93;2.28;;;18.60;98.10;;;;;;5049910;28;20036;-72
2023/07/03 06:56:43;;;;;;;7.20;2.50;;;18.60;98.20;;;;;;5028352;28;20082;-72
2023/07/03 06:59:09;;;;;;;7.50;2.60;;;18.50;98.00;;;;;;5026906;28;20081;-71
2023/07/03 07:01:34;;;;;;;12.45;2.92;;;18.50;97.50;;;;;;5047701;28;20029;-71
2023/07/03 07:04:00;;;;;;;7.43;2.00;;;18.60;97.40;;;;;;5053025;28;20029;-72
2023/07/03 07:06:29;;;;;;;7.90;2.40;;;18.50;97.10;;;;;;5044698;28;20036;-69
2023/07/03 07:08:55;;;;;;;9.25;2.08;;;18.30;97.60;;;;;;5050839;28;20029;-60
2023/07/03 07:11:28;;;;;;;7.10;1.92;;;18.40;98.10;;;;;;5027606;28;20040;-60
2023/07/03 07:13:56;;;;;;;5.38;2.03;;;18.60;96.70;;;;;;5050279;28;20435;-60
2023/07/03 07:16:33;;;;;;;5.03;1.90;;;18.60;96.90;;;;;;5027149;28;20087;-60
2023/07/03 07:19:03;;;;;;;6.78;1.98;;;18.70;96.70;;;;;;5033989;28;20037;-60
2023/07/03 07:21:31;;;;;;;3.10;1.27;;;18.90;96.40;;;;;;5045141;28;20040;-60
2023/07/03 07:24:02;;;;;;;7.88;1.60;;;19.20;95.80;;;;;;5050363;28;20032;-60
2023/07/03 07:26:33;;;;;;;9.55;2.00;;;19.30;94.20;;;;;;5030289;28;20025;-60
2023/07/03 07:29:00;;;;;;;7.32;1.75;;;19.20;93.70;;;;;;5049258;28;20053;-73
2023/07/03 07:31:28;;;;;;;8.88;1.63;;;19.30;94.10;;;;;;5048545;28;20506;-72
2023/07/03 07:33:54;;;;;;;5.50;2.17;;;19.20;93.80;;;;;;5025208;28;20055;-72
2023/07/03 07:36:23;;;;;;;7.50;1.63;;;19.30;93.80;;;;;;5030690;28;20124;-72
2023/07/03 07:38:49;;;;;;;4.00;1.25;;;19.40;93.40;;;;;;5050176;28;20029;-71
2023/07/03 07:41:15;;;;;;;4.35;1.27;;;19.30;93.80;;;;;;5048977;28;20440;-72
2023/07/03 07:43:41;;;;;;;6.78;1.35;;;19.60;93.30;;;;;;5031470;28;20060;-72
2023/07/03 07:46:07;;;;;;;6.35;1.70;;;19.70;93.20;;;;;;5049053;28;20033;-72
2023/07/03 07:48:34;;;;;;;10.70;1.50;;;19.70;93.00;;;;;;5025008;28;20036;-72
2023/07/03 07:51:00;;;;;;;9.40;1.38;;;19.50;93.10;;;;;;5031440;28;20128;-72
2023/07/03 07:53:29;;;;;;;5.72;1.95;;;19.50;92.90;;;;;;5049817;28;20043;-72
2023/07/03 07:55:58;;;;;;;10.57;2.22;;;19.60;93.20;;;;;;5048220;28;20496;-72
2023/07/03 07:58:24;;;;;;;2.60;1.10;;;19.60;92.90;;;;;;5032412;28;20036;-72
2023/07/03 08:00:56;;;;;;;9.05;1.38;;;19.80;92.80;;;;;;5031218;28;20035;-72
2023/07/03 08:03:22;;;;;;;4.03;1.35;;;20.00;92.60;;;;;;5024823;28;20025;-73
2023/07/03 08:05:47;;;;;;;6.63;1.60;;;20.10;92.40;;;;;;5021397;28;20091;-72
2023/07/03 08:08:13;;;;;;;9.18;1.50;;;20.30;92.20;;;;;;5030776;28;20033;-72
2023/07/03 08:10:40;;;;;;;6.22;1.20;;;20.30;92.20;;;;;;5042027;28;20078;-73
2023/07/03 08:13:07;;;;;;;5.28;1.40;;;20.20;91.80;;;;;;5048553;28;20024;-73
2023/07/03 08:15:33;;;;;;;10.55;1.83;;;20.00;92.00;;;;;;5016252;28;20532;-72
2023/07/03 08:17:58;;;;;;;2.45;1.00;;;20.20;91.80;;;;;;5047992;28;20098;-73
2023/07/03 08:20:24;;;;;;;3.97;1.40;;;20.40;91.80;;;;;;5049921;28;20044;-72
2023/07/03 08:22:50;;;;;;;3.78;1.40;;;20.50;91.70;;;;;;5048345;28;20029;-73
2023/07/03 08:25:16;;;;;;;4.07;1.40;;;20.10;92.20;;;;;;5031982;28;20488;-72
2023/07/03 08:27:46;;;;;;;3.42;1.15;;;19.90;91.70;;;;;;5035522;28;20036;-72
2023/07/03 08:30:13;;;;;;;8.32;1.50;;;19.90;91.90;;;;;;5053947;28;20037;-72
2023/07/03 08:32:40;;;;;;;3.17;0.95;;;19.90;91.90;;;;;;5052366;28;20067;-73
2023/07/03 08:35:07;;;;;;;3.45;1.10;;;19.90;92.10;;;;;;5036234;28;20122;-73
2023/07/03 08:37:33;;;;;;;5.18;1.40;;;19.90;91.30;;;;;;5033971;28;20171;-73
2023/07/03 08:39:59;;;;;;;6.72;1.30;;;20.00;91.60;;;;;;5035663;28;20051;-73
2023/07/03 08:42:30;;;;;;;5.53;1.33;;;20.00;91.70;;;;;;5051834;28;20492;-72
2023/07/03 08:44:58;;;;;;;3.45;1.10;;;19.80;91.40;;;;;;5036317;28;20051;-74
2023/07/03 08:47:29;;;;;;;6.75;1.10;;;19.90;91.60;;;;;;5051468;28;20460;-73
2023/07/03 08:49:57;;;;;;;8.23;2.33;;;19.80;91.60;;;;;;5035942;28;20065;-73
2023/07/03 08:52:55;;;;;;;4.88;1.58;;;20.00;91.90;;;;;;5036899;22;20052;-70
2023/07/03 08:55:27;;;;;;;3.65;1.88;;;19.90;91.60;;;;;;5012516;28;20665;-70
2023/07/03 08:57:52;;;;;;;4.35;1.13;;;20.00;91.90;;;;;;5012187;28;20025;-70
2023/07/03 09:00:23;;;;;;;5.22;1.65;;;19.70;92.20;;;;;;5023435;28;20030;-70
2023/07/03 09:02:52;;;;;;;;;;;19.60;92.50;;;;;;5016913;28;20038;-69
2023/07/03 09:05:57;;;;;;;5.40;1.40;;;19.40;93.20;;;;;;4998192;28;19929;-69
2023/07/03 09:08:37;;;;;;;6.82;1.50;;;19.20;93.30;;;;;;5016063;28;20054;-69
2023/07/03 09:11:04;;;;;;;6.15;1.33;;;19.20;93.50;;;;;;5000910;28;20110;-69
2023/07/03 09:13:45;;;;;;;3.63;1.23;;;19.40;93.00;;;;;;4996724;28;20026;-70
2023/07/03 09:16:19;;;;;;;4.93;1.58;;;19.50;93.60;;;;;;4998511;28;20030;-70
2023/07/03 09:19:08;;;;;;;2.08;1.15;;;19.60;93.00;;;;;;4997738;28;20789;-70
2023/07/03 09:21:36;;;;;;;3.00;1.00;;;19.90;92.80;;;;;;4995872;28;20737;-70
2023/07/03 09:24:36;;;;;;;2.88;1.27;;;19.90;92.50;;;;;;5001322;28;20082;-70
2023/07/03 09:27:11;;;;;;;3.90;1.13;;;20.00;92.70;;;;;;4996272;28;20034;-70
2023/07/03 09:29:38;;;;;;;2.50;0.88;;;19.90;92.50;;;;;;5003846;28;20040;-70
2023/07/03 09:32:04;;;;;;;6.18;1.15;;;20.00;93.00;;;;;;4998538;28;20045;-70
2023/07/03 09:35:02;;;;;;;3.78;2.03;;;20.10;93.20;;;;;;5010380;28;20078;-70
2023/07/03 09:37:28;;;;;;;4.22;1.38;;;20.40;92.90;;;;;;5010939;28;20038;-70
2023/07/03 09:39:55;;;;;;;8.90;2.55;;;20.00;93.10;;;;;;5011180;28;20037;-71
2023/07/03 09:42:22;;;;;;;3.53;1.35;;;20.20;92.60;;;;;;5009961;28;20037;-70
2023/07/03 09:44:49;;;;;;;4.63;1.25;;;20.10;92.60;;;;;;4997381;28;20034;-73
2023/07/03 09:47:25;;;;;;;4.30;1.48;;;20.30;92.80;;;;;;5011064;28;20084;-78
2023/07/03 09:49:51;;;;;;;6.65;1.85;;;20.20;92.70;;;;;;5005951;28;20034;-72
2023/07/03 09:52:17;;;;;;;7.53;1.27;;;20.20;93.00;;;;;;5012257;28;20026;-78
2023/07/03 09:54:46;;;;;;;3.03;1.30;;;20.20;93.00;;;;;;5007702;28;20088;-77
2023/07/03 09:57:34;;;;;;;3.08;1.60;;;19.90;93.20;;;;;;5011421;28;20030;-73
2023/07/03 10:00:14;;;;;;;6.53;1.27;;;19.70;93.40;;;;;;5012124;28;20030;-72
2023/07/03 10:02:44;;;;;;;2.83;0.80;;;19.60;93.70;;;;;;5010944;28;20037;-74
2023/07/03 10:05:15;;;;;;;2.65;0.80;;;19.60;93.90;;;;;;5006934;28;20056;-74
2023/07/03 10:07:44;;;;;;;2.92;1.13;;;19.70;94.10;;;;;;5011568;28;20026;-72
2023/07/03 10:10:17;;;;;;;4.00;1.55;;;19.70;94.20;;;;;;5005120;28;20034;-68
2023/07/03 10:13:21;;;;;;;2.00;1.10;;;19.80;93.60;;;;;;5012006;28;20018;-75
2023/07/03 10:15:47;;;;;;;3.63;0.95;;;19.90;93.40;;;;;;5004993;28;20117;-73
2023/07/03 10:18:27;;;;;;;2.38;1.00;;;20.20;93.30;;;;;;5010762;28;20092;-73
2023/07/03 10:20:54;;;;;;;5.63;1.05;;;20.30;93.30;;;;;;5005055;28;20034;-73
2023/07/03 10:23:27;;;;;;;11.60;2.30;;;20.30;93.40;;;;;;5007505;28;20398;-72
2023/07/03 10:26:56;;;;;;;5.15;1.15;;;20.20;93.70;;;;;;5009345;28;20524;-71
2023/07/03 10:29:33;;;;;;;6.28;1.13;;;20.30;93.70;;;;;;4992008;28;20678;-75
2023/07/03 10:32:11;;;;;;;1.92;1.02;;;20.30;93.80;;;;;;5007581;28;20034;-78
2023/07/03 10:35:01;;;;;;;3.42;1.00;;;20.60;93.40;;;;;;5008117;28;20042;-73
2023/07/03 10:37:29;;;;;;;2.60;0.70;;;21.00;93.10;;;;;;5005000;28;20026;-76
2023/07/03 10:40:28;;;;;;;8.32;1.15;;;21.20;93.10;;;;;;5004343;28;20423;-72
2023/07/03 10:42:59;;;;;;;5.28;1.30;;;21.30;93.00;;;;;;5004912;28;20108;-73
2023/07/03 10:45:29;;;;;;;3.67;1.15;;;21.60;92.70;;;;;;5000378;28;20448;-76
2023/07/03 10:48:15;;;;;;;2.63;0.82;;;21.70;92.40;;;;;;5006235;28;20046;-73
2023/07/03 10:51:14;;;;;;;4.20;1.33;;;21.30;92.70;;;;;;4997355;28;20042;-72
2023/07/03 10:53:40;;;;;;;3.33;1.17;;;21.30;92.90;;;;;;5005954;28;20517;-71
2023/07/03 10:56:33;;;;;;;4.95;1.42;;;21.40;92.50;;;;;;5011139;28;20041;-72
2023/07/03 10:59:09;;;;;;;2.35;0.95;;;21.10;92.60;;;;;;5009864;28;20030;-71
2023/07/03 11:01:52;;;;;;;3.58;0.98;;;21.40;92.70;;;;;;5009145;28;20037;-72
2023/07/03 11:04:24;;;;;;;3.65;1.30;;;21.50;93.20;;;;;;4991694;28;20101;-71
2023/07/03 11:07:04;;;;;;;2.08;0.93;;;21.60;92.60;;;;;;5011012;28;20446;-71
2023/07/03 11:09:47;;;;;;;5.88;1.27;;;21.80;92.60;;;;;;5011213;28;20654;-71
2023/07/03 11:12:53;;;;;;;4.90;1.30;;;21.60;92.60;;;;;;5011758;28;20121;-71
2023/07/03 11:15:24;;;;;;;5.20;0.77;;;21.60;92.30;;;;;;5006433;28;20129;-71
2023/07/03 11:18:17;;;;;;;1.73;0.52;;;21.60;92.80;;;;;;5011111;28;20123;-71
2023/07/03 11:21:06;;;;;;;3.50;0.70;;;21.50;92.90;;;;;;5010739;28;20397;-71
2023/07/03 11:24:16;;;;;;;6.28;1.25;;;21.30;93.20;;;;;;4998017;28;20042;-71
2023/07/03 11:26:53;;;;;;;1.63;0.90;;;21.40;93.00;;;;;;5005703;28;20109;-71
2023/07/03 11:29:20;;;;;;;2.88;0.60;;;21.40;93.10;;;;;;5007383;28;20106;-73
2023/07/03 11:31:48;;;;;;;4.80;1.30;;;21.60;92.90;;;;;;5003253;28;20485;-74
2023/07/03 11:34:18;;;;;;;3.25;0.98;;;21.80;92.80;;;;;;5008435;28;20474;-73
2023/07/03 11:36:50;;;;;;;4.15;1.73;;;21.90;92.00;;;;;;5005977;28;20037;-72
2023/07/03 11:39:28;;;;;;;3.30;0.90;;;21.90;92.20;;;;;;5007461;28;20038;-71
2023/07/03 11:42:00;;;;;;;9.45;1.42;;;21.50;92.40;;;;;;5007216;28;20034;-71
2023/07/03 11:44:46;;;;;;;4.38;1.08;;;21.30;92.80;;;;;;5008821;28;20060;-72
2023/07/03 11:47:27;;;;;;;4.18;1.70;;;21.20;93.00;;;;;;5009966;28;20037;-73
2023/07/03 11:50:05;;;;;;;3.03;1.17;;;21.50;93.00;;;;;;5003699;28;20494;-72
2023/07/03 11:52:38;;;;;;;2.70;0.70;;;21.60;92.40;;;;;;5008530;28;20108;-73
2023/07/03 11:55:18;;;;;;;6.50;0.90;;;21.80;92.00;;;;;;4996109;28;20117;-73
2023/07/03 11:57:56;;;;;;;3.08;1.10;;;21.90;91.70;;;;;;5002763;28;20211;-72
2023/07/03 12:00:27;;;;;;;2.85;0.93;;;22.10;91.70;;;;;;5000637;28;20393;-72
2023/07/03 12:03:04;;;;;;;6.68;1.80;;;22.20;91.60;;;;;;5012344;28;20025;-73
2023/07/03 12:05:45;;;;;;;4.03;1.13;;;22.10;91.60;;;;;;5007033;28;20021;-73
2023/07/03 12:08:19;;;;;;;3.17;0.98;;;21.90;91.70;;;;;;5015995;28;20117;-73
2023/07/03 12:10:52;;;;;;;16.10;1.55;;;21.70;91.80;;;;;;5009435;28;20041;-72
2023/07/03 12:13:41;;;;;;;1.75;0.90;;;21.60;92.00;;;;;;5003378;28;20122;-73
2023/07/03 12:16:25;;;;;;;5.38;1.05;;;21.60;92.00;;;;;;5016443;28;20041;-73
2023/07/03 12:19:05;;;;;;;2.22;0.85;;;21.80;91.90;;;;;;5011916;28;20041;-73
2023/07/03 12:21:47;;;;;;;2.35;1.23;;;21.80;91.90;;;;;;5014997;28;20056;-73
2023/07/03 12:24:27;;;;;;;1.75;0.80;;;22.00;91.80;;;;;;5014713;28;20280;-72
2023/07/03 12:27:05;;;;;;;6.57;1.42;;;21.90;91.90;;;;;;5016581;28;20567;-73
2023/07/03 12:29:36;;;;;;;3.00;1.17;;;22.50;91.70;;;;;;5016690;28;20036;-73
2023/07/03 12:32:11;;;;;;;6.45;1.65;;;22.80;91.00;;;;;;5013106;28;20125;-73
2023/07/03 12:34:41;;;;;;;2.17;1.05;;;23.10;90.90;;;;;;5011600;28;20073;-72
2023/07/03 12:37:21;;;;;;;4.85;1.13;;;22.80;91.10;;;;;;5013987;28;20041;-73
2023/07/03 12:39:48;;;;;;;2.63;0.80;;;22.80;91.30;;;;;;5010595;28;20591;-72
2023/07/03 12:42:23;;;;;;;3.03;0.90;;;22.70;91.40;;;;;;5014782;28;20469;-72
2023/07/03 12:44:50;;;;;;;2.33;1.15;;;22.50;91.50;;;;;;5009659;28;20030;-73
2023/07/03 12:47:20;;;;;;;2.65;0.85;;;22.40;91.90;;;;;;5014829;28;20034;-72
2023/07/03 12:49:47;;;;;;;3.45;1.08;;;22.40;92.00;;;;;;5011073;28;20030;-73
2023/07/03 12:52:14;;;;;;;3.88;0.98;;;22.40;91.60;;;;;;5015673;28;20095;-73
2023/07/03 12:54:40;;;;;;;2.00;0.50;;;22.60;91.60;;;;;;5009141;28;20394;-73
2023/07/03 12:57:10;;;;;;;4.50;1.27;;;23.00;91.40;;;;;;5013791;28;20029;-73
2023/07/03 12:59:36;;;;;;;1.33;0.75;;;23.20;90.70;;;;;;5015449;28;20435;-72